Time;durP1;ratioP1;P1;durP2;ratioP2;P2;SDS_P1;SDS_P2;PMS_P1;PMS_P2;Temp;Humidity;BMP_temperature;BMP_pressure;BME280_temperature;BME280_humidity;BME280_pressure;Samples;Min_cycle;Max_cycle;Signal;HPM_P1;HPM_P2
2021/04/07 00:00:24;;;;;;;11.85;4.05;;;179.20;1536.00;;;;;;5056817;28;20029;-78
2021/04/07 00:02:51;;;;;;;8.85;4.03;;;179.20;1536.00;;;;;;5056909;28;20021;-78
2021/04/07 00:05:24;;;;;;;11.57;4.53;;;179.20;1536.00;;;;;;5056898;28;20032;-74
2021/04/07 00:07:50;;;;;;;10.55;3.97;;;179.20;1536.00;;;;;;5056712;28;20025;-78
2021/04/07 00:10:19;;;;;;;10.52;4.38;;;154.50;1536.00;;;;;;5056937;28;20027;-73
2021/04/07 00:12:44;;;;;;;15.77;5.35;;;154.50;1561.60;;;;;;5056739;28;20029;-75
2021/04/07 00:15:21;;;;;;;16.25;5.45;;;154.50;1561.60;;;;;;5056704;28;20029;-73
2021/04/07 00:17:48;;;;;;;17.27;6.10;;;154.50;1561.60;;;;;;5056698;28;20067;-73
2021/04/07 00:20:22;;;;;;;15.32;6.38;;;154.40;1561.60;;;;;;5056351;28;20108;-73
2021/04/07 00:22:48;;;;;;;15.87;6.60;;;154.40;1561.60;;;;;;5056375;28;20025;-77
2021/04/07 00:25:15;;;;;;;17.52;5.65;;;154.40;1561.60;;;;;;5056704;28;20063;-78
2021/04/07 00:27:42;;;;;;;14.55;5.13;;;154.30;1561.60;;;;;;5056580;28;20025;-76
2021/04/07 00:30:09;;;;;;;10.07;5.00;;;154.30;1561.60;;;;;;5056274;28;20025;-73
2021/04/07 00:32:36;;;;;;;10.02;4.75;;;154.30;1561.60;;;;;;5056302;28;20044;-79
2021/04/07 00:35:02;;;;;;;13.45;5.05;;;154.20;1587.20;;;;;;5055408;28;20123;-73
2021/04/07 00:37:28;;;;;;;12.10;4.80;;;154.20;1587.20;;;;;;5054716;28;20049;-73
2021/04/07 00:39:53;;;;;;;10.48;5.68;;;154.20;1587.20;;;;;;5056128;28;20021;-73
2021/04/07 00:42:19;;;;;;;9.57;5.13;;;154.10;1587.20;;;;;;5056039;28;20021;-73
2021/04/07 00:44:45;;;;;;;9.38;5.25;;;154.10;1587.20;;;;;;5056189;28;20040;-77
2021/04/07 00:47:14;;;;;;;8.45;4.68;;;154.10;1587.20;;;;;;5054700;28;20490;-73
2021/04/07 00:49:40;;;;;;;7.75;4.45;;;154.00;1587.20;;;;;;5055999;28;20481;-78
2021/04/07 00:52:07;;;;;;;7.80;4.13;;;154.00;1612.80;;;;;;5054953;28;20052;-78
2021/04/07 00:54:33;;;;;;;10.20;4.85;;;154.00;1612.80;;;;;;5056357;28;20021;-73
2021/04/07 00:56:59;;;;;;;13.48;6.18;;;153.90;1612.80;;;;;;5055778;28;20036;-78
2021/04/07 00:59:25;;;;;;;8.85;5.10;;;153.90;1612.80;;;;;;5055737;28;20474;-73
2021/04/07 01:01:51;;;;;;;14.38;4.95;;;153.90;1612.80;;;;;;5055879;28;20040;-74
2021/04/07 01:04:19;;;;;;;12.43;4.45;;;153.90;1612.80;;;;;;5055506;28;20115;-78
2021/04/07 01:06:46;;;;;;;9.23;4.72;;;153.80;1638.40;;;;;;5055794;28;20017;-76
2021/04/07 01:09:12;;;;;;;12.18;5.60;;;153.80;1638.40;;;;;;5055539;28;20471;-73
2021/04/07 01:11:38;;;;;;;12.63;6.70;;;153.80;1638.40;;;;;;5055586;28;20025;-74
2021/04/07 01:14:05;;;;;;;11.70;6.03;;;153.80;1638.40;;;;;;5055770;28;20107;-78
2021/04/07 01:16:32;;;;;;;13.18;5.95;;;153.70;1638.40;;;;;;5055628;28;20040;-78
2021/04/07 01:18:57;;;;;;;11.38;5.85;;;153.70;1638.40;;;;;;5055533;28;20025;-78
2021/04/07 01:21:23;;;;;;;13.98;6.68;;;153.70;1638.40;;;;;;5055611;28;20029;-79
2021/04/07 01:23:49;;;;;;;15.68;6.82;;;153.70;1638.40;;;;;;5055520;28;20060;-73
2021/04/07 01:26:16;;;;;;;17.30;7.15;;;153.70;1638.40;;;;;;5055020;28;20028;-72
2021/04/07 01:28:42;;;;;;;11.48;6.05;;;153.60;1638.40;;;;;;5055282;28;20027;-79
2021/04/07 01:31:08;;;;;;;12.05;5.85;;;153.60;1664.00;;;;;;5055387;28;20021;-73
2021/04/07 01:33:35;;;;;;;9.93;4.82;;;153.60;1664.00;;;;;;5054790;28;20028;-73
2021/04/07 01:36:01;;;;;;;9.45;4.68;;;128.90;1664.00;;;;;;5054894;28;20056;-80
2021/04/07 01:38:27;;;;;;;7.72;4.07;;;128.90;1664.00;;;;;;5055207;28;20021;-74
2021/04/07 01:40:55;;;;;;;9.07;5.80;;;128.80;1689.60;;;;;;5055054;28;20021;-79
2021/04/07 01:43:22;;;;;;;9.50;4.70;;;128.80;1689.60;;;;;;5055301;28;20130;-80
2021/04/07 01:45:50;;;;;;;6.82;3.95;;;128.80;1664.00;;;;;;5054927;28;20028;-75
2021/04/07 01:48:17;;;;;;;8.05;4.65;;;128.80;1689.60;;;;;;5054998;28;20047;-77
2021/04/07 01:50:47;;;;;;;13.63;5.25;;;128.80;1689.60;;;;;;5055015;28;20087;-74
2021/04/07 01:53:14;;;;;;;11.30;5.07;;;128.80;1689.60;;;;;;5054673;28;20047;-73
2021/04/07 01:55:40;;;;;;;10.10;5.35;;;128.80;1689.60;;;;;;5053447;28;20017;-72
2021/04/07 01:58:06;;;;;;;13.02;5.93;;;128.70;1689.60;;;;;;5053305;28;20044;-72
2021/04/07 02:00:32;;;;;;;8.40;4.63;;;128.70;1664.00;;;;;;5054987;28;20049;-73
2021/04/07 02:03:01;;;;;;;10.43;4.57;;;128.80;1664.00;;;;;;5053595;28;20037;-73
2021/04/07 02:05:28;;;;;;;10.45;4.53;;;128.70;1664.00;;;;;;5054849;28;20489;-73
2021/04/07 02:07:53;;;;;;;10.32;5.18;;;128.60;1664.00;;;;;;5054362;28;20021;-79
2021/04/07 02:10:19;;;;;;;11.45;4.95;;;128.70;1664.00;;;;;;5054765;28;20043;-79
2021/04/07 02:12:49;;;;;;;16.83;5.97;;;128.70;1664.00;;;;;;5054745;28;20025;-79
2021/04/07 02:15:15;;;;;;;12.93;6.18;;;128.60;1689.60;;;;;;5054421;28;20529;-73
2021/04/07 02:17:42;;;;;;;10.30;5.65;;;128.60;1664.00;;;;;;5054129;28;20478;-72
2021/04/07 02:20:09;;;;;;;13.40;6.18;;;128.60;1664.00;;;;;;5054440;28;20029;-78
2021/04/07 02:22:36;;;;;;;11.05;5.53;;;128.50;1689.60;;;;;;5053992;28;20028;-78
2021/04/07 02:25:05;;;;;;;12.80;6.20;;;128.50;1664.00;;;;;;5054024;28;20045;-72
2021/04/07 02:27:32;;;;;;;11.35;5.80;;;128.50;1664.00;;;;;;5053943;28;20035;-78
2021/04/07 02:29:57;;;;;;;9.35;6.07;;;128.40;1689.60;;;;;;5054235;28;20102;-73
2021/04/07 02:32:25;;;;;;;10.68;5.85;;;128.40;1664.00;;;;;;5054207;28;20049;-72
2021/04/07 02:34:51;;;;;;;11.57;6.28;;;128.40;1664.00;;;;;;5054153;28;20029;-79
2021/04/07 02:37:18;;;;;;;16.95;5.97;;;128.30;1664.00;;;;;;5053678;28;20122;-79
2021/04/07 02:39:45;;;;;;;12.65;6.13;;;128.30;1689.60;;;;;;5053711;28;20454;-72
2021/04/07 02:42:12;;;;;;;11.25;6.28;;;128.20;1689.60;;;;;;5054201;28;20437;-73
2021/04/07 02:44:38;;;;;;;10.23;5.70;;;128.20;1689.60;;;;;;5054079;28;20037;-73
2021/04/07 02:47:04;;;;;;;14.75;6.30;;;128.20;1689.60;;;;;;5053851;28;20025;-73
2021/04/07 02:49:31;;;;;;;10.65;5.43;;;128.10;1689.60;;;;;;5053872;28;20544;-79
2021/04/07 02:51:57;;;;;;;8.23;5.38;;;128.10;1689.60;;;;;;5053883;28;20067;-78
2021/04/07 02:54:23;;;;;;;8.38;5.60;;;128.10;1689.60;;;;;;5053831;28;20471;-73
2021/04/07 02:56:48;;;;;;;10.65;6.03;;;128.00;1689.60;;;;;;5054361;28;20053;-76
2021/04/07 02:59:14;;;;;;;9.43;5.68;;;128.00;1689.60;;;;;;5053871;28;20420;-72
2021/04/07 03:01:40;;;;;;;9.85;5.20;;;103.30;1664.00;;;;;;5053732;28;20017;-73
2021/04/07 03:04:06;;;;;;;13.52;5.80;;;103.30;1664.00;;;;;;5053811;28;20025;-73
2021/04/07 03:06:32;;;;;;;8.88;5.35;;;103.30;1664.00;;;;;;5053465;28;20103;-73
2021/04/07 03:08:58;;;;;;;11.18;6.00;;;103.30;1664.00;;;;;;5053893;28;20499;-79
2021/04/07 03:11:25;;;;;;;14.02;6.90;;;103.20;1664.00;;;;;;5052082;28;20021;-72
2021/04/07 03:13:50;;;;;;;13.15;6.30;;;103.20;1664.00;;;;;;5054009;28;20379;-73
2021/04/07 03:16:16;;;;;;;13.50;6.30;;;103.10;1664.00;;;;;;5063947;28;20028;-72
2021/04/07 03:18:42;;;;;;;11.93;6.20;;;103.10;1689.60;;;;;;5077220;28;20032;-72
2021/04/07 03:21:07;;;;;;;8.93;5.53;;;103.10;1664.00;;;;;;5077781;28;20100;-78
2021/04/07 03:23:33;;;;;;;10.35;5.82;;;103.10;1689.60;;;;;;5077492;28;20032;-72
2021/04/07 03:25:59;;;;;;;8.60;4.70;;;103.00;1664.00;;;;;;5076283;28;20058;-73
2021/04/07 03:28:27;;;;;;;6.88;5.03;;;103.00;1689.60;;;;;;5077172;28;20060;-73
2021/04/07 03:30:53;;;;;;;11.35;5.95;;;103.00;1689.60;;;;;;5077345;28;20370;-73
2021/04/07 03:33:31;;;;;;;8.60;4.93;;;102.90;1689.60;;;;;;5077314;28;20024;-79
2021/04/07 03:35:59;;;;;;;8.70;5.05;;;102.90;1689.60;;;;;;5077497;28;20032;-78
2021/04/07 03:38:25;;;;;;;10.38;5.28;;;102.90;1689.60;;;;;;5077540;28;20119;-73
2021/04/07 03:40:51;;;;;;;9.25;5.57;;;102.80;1689.60;;;;;;5077409;28;20103;-79
2021/04/07 03:43:19;;;;;;;9.35;5.65;;;102.80;1689.60;;;;;;5077309;28;20081;-73
2021/04/07 03:45:46;;;;;;;9.32;5.82;;;102.70;1689.60;;;;;;5077192;28;20351;-73
2021/04/07 03:48:15;;;;;;;8.82;6.00;;;102.70;1689.60;;;;;;5077071;28;20031;-78
2021/04/07 03:50:42;;;;;;;11.07;6.13;;;102.70;1689.60;;;;;;5077194;28;20070;-79
2021/04/07 03:53:09;;;;;;;14.60;6.40;;;102.70;1689.60;;;;;;5076932;28;20110;-79
2021/04/07 03:55:35;;;;;;;10.20;6.45;;;102.70;1689.60;;;;;;5077004;28;20048;-78
2021/04/07 03:58:01;;;;;;;9.85;6.05;;;102.60;1689.60;;;;;;5076970;28;20051;-72
2021/04/07 04:00:28;;;;;;;18.00;8.80;;;102.60;1689.60;;;;;;5077162;28;20028;-79
2021/04/07 04:02:54;;;;;;;13.15;7.82;;;102.60;1689.60;;;;;;5076826;28;20032;-73
2021/04/07 04:05:19;;;;;;;20.80;8.68;;;102.50;1689.60;;;;;;5076967;28;20047;-78
2021/04/07 04:07:45;;;;;;;21.55;8.80;;;102.50;1689.60;;;;;;5077086;28;20499;-79
2021/04/07 04:10:13;;;;;;;16.58;8.38;;;102.50;1715.20;;;;;;5076690;28;20055;-73
2021/04/07 04:12:39;;;;;;;21.42;11.48;;;102.50;1689.60;;;;;;5077233;28;20385;-75
2021/04/07 04:15:09;;;;;;;23.75;8.93;;;102.40;1715.20;;;;;;5076747;28;20120;-79
2021/04/07 04:17:35;;;;;;;18.90;8.60;;;102.40;1715.20;;;;;;5077109;28;20381;-72
2021/04/07 04:20:01;;;;;;;19.10;9.07;;;77.70;1715.20;;;;;;5076543;28;20032;-72
2021/04/07 04:22:27;;;;;;;17.60;8.10;;;77.70;1715.20;;;;;;5076571;28;20021;-79
2021/04/07 04:24:52;;;;;;;21.98;8.90;;;77.70;1715.20;;;;;;5076100;28;20086;-74
2021/04/07 04:27:18;;;;;;;15.82;9.38;;;77.70;1715.20;;;;;;5075488;28;20496;-73
2021/04/07 04:29:44;;;;;;;13.80;8.48;;;77.70;1715.20;;;;;;5076108;28;20070;-72
2021/04/07 04:32:10;;;;;;;10.02;7.05;;;77.70;1715.20;;;;;;5076402;28;20028;-75
2021/04/07 04:34:35;;;;;;;13.80;7.90;;;77.60;1715.20;;;;;;5076365;28;20032;-76
2021/04/07 04:37:01;;;;;;;15.38;8.75;;;77.60;1715.20;;;;;;5075312;28;20135;-79
2021/04/07 04:39:27;;;;;;;15.75;9.45;;;77.60;1715.20;;;;;;5076415;28;20052;-79
2021/04/07 04:41:53;;;;;;;15.00;8.25;;;77.60;1715.20;;;;;;5076231;28;20028;-73
2021/04/07 04:44:18;;;;;;;14.63;8.80;;;77.60;1715.20;;;;;;5076120;28;20032;-72
2021/04/07 04:46:44;;;;;;;16.30;8.77;;;77.60;1715.20;;;;;;5076098;28;20033;-72
2021/04/07 04:49:10;;;;;;;13.75;8.35;;;77.60;1715.20;;;;;;5076206;28;20032;-74
2021/04/07 04:51:36;;;;;;;15.50;8.13;;;77.60;1715.20;;;;;;5075488;28;20033;-72
2021/04/07 04:54:01;;;;;;;10.98;7.40;;;77.60;1715.20;;;;;;5075952;28;20115;-72
2021/04/07 04:56:27;;;;;;;11.15;7.18;;;77.50;1715.20;;;;;;5074243;28;20024;-72
2021/04/07 04:58:53;;;;;;;9.35;6.22;;;77.50;1740.80;;;;;;5076148;28;20505;-73
2021/04/07 05:01:18;;;;;;;10.85;6.30;;;77.50;1740.80;;;;;;5075621;28;20056;-73
2021/04/07 05:03:44;;;;;;;11.35;6.40;;;77.50;1740.80;;;;;;5076022;28;20036;-79
2021/04/07 05:06:10;;;;;;;12.25;6.18;;;77.50;1740.80;;;;;;5075889;28;20032;-79
2021/04/07 05:08:36;;;;;;;11.73;6.97;;;77.50;1740.80;;;;;;5075811;28;20029;-71
2021/04/07 05:11:01;;;;;;;11.43;6.75;;;77.50;1740.80;;;;;;5075880;28;20120;-73
2021/04/07 05:13:27;;;;;;;17.35;8.23;;;77.50;1740.80;;;;;;5075917;28;20025;-79
2021/04/07 05:15:53;;;;;;;15.50;8.52;;;77.60;1740.80;;;;;;5075495;28;20112;-72
2021/04/07 05:18:19;;;;;;;25.27;8.73;;;77.60;1740.80;;;;;;5075590;28;20035;-72
2021/04/07 05:20:45;;;;;;;14.25;8.27;;;77.60;1766.40;;;;;;5075211;28;20033;-73
2021/04/07 05:23:11;;;;;;;13.68;8.35;;;77.60;1766.40;;;;;;5075440;28;20103;-72
2021/04/07 05:25:37;;;;;;;15.43;9.02;;;77.70;1766.40;;;;;;5073965;28;20464;-79
2021/04/07 05:28:07;;;;;;;16.90;9.35;;;77.70;1766.40;;;;;;5075223;28;20462;-74
2021/04/07 05:33:23;;;;;;;16.50;8.50;;;102.40;1766.40;;;;;;5075922;28;20102;-73
2021/04/07 05:35:49;;;;;;;13.63;8.18;;;102.40;1766.40;;;;;;5074967;28;20024;-79
2021/04/07 05:38:17;;;;;;;14.02;8.02;;;102.50;1766.40;;;;;;5075291;28;20474;-72
2021/04/07 05:40:43;;;;;;;15.50;9.18;;;102.60;1766.40;;;;;;5074966;28;20107;-78
2021/04/07 05:43:09;;;;;;;13.65;8.68;;;102.60;1766.40;;;;;;5074152;28;20106;-73
2021/04/07 05:45:41;;;;;;;14.77;9.18;;;102.60;1766.40;;;;;;5075070;28;20044;-79
2021/04/07 05:48:08;;;;;;;18.20;10.18;;;102.70;1766.40;;;;;;5075232;28;20481;-75
2021/04/07 05:50:39;;;;;;;15.52;9.57;;;102.80;1766.40;;;;;;5056940;28;20077;-71
2021/04/07 05:53:06;;;;;;;14.32;10.15;;;102.80;1766.40;;;;;;5054220;28;20029;-78
2021/04/07 05:55:32;;;;;;;20.88;12.73;;;102.90;1740.80;;;;;;5053533;28;20051;-72
2021/04/07 05:58:08;;;;;;;20.27;11.77;;;103.00;1740.80;;;;;;5054758;28;20043;-70
2021/04/07 06:00:38;;;;;;;21.20;12.35;;;103.10;1715.20;;;;;;5057083;28;20032;-72
2021/04/07 06:03:05;;;;;;;25.52;13.00;;;103.10;1715.20;;;;;;5058368;28;20413;-70
2021/04/07 06:05:32;;;;;;;29.10;14.55;;;103.20;1715.20;;;;;;5074500;28;20375;-76
2021/04/07 06:08:01;;;;;;;32.00;14.57;;;103.30;1715.20;;;;;;5073648;28;20020;-74
2021/04/07 06:10:29;;;;;;;24.80;13.00;;;128.00;1740.80;;;;;;5074498;28;20031;-74
2021/04/07 06:12:55;;;;;;;22.65;11.85;;;128.10;1715.20;;;;;;5074307;28;20027;-76
2021/04/07 06:15:21;;;;;;;16.92;10.00;;;128.20;1715.20;;;;;;5074493;28;20496;-76
2021/04/07 06:17:54;;;;;;;13.27;8.30;;;128.20;1689.60;;;;;;5074325;28;20017;-75
2021/04/07 06:20:25;;;;;;;12.05;8.10;;;128.30;1689.60;;;;;;5074297;28;20056;-76
2021/04/07 06:22:52;;;;;;;12.70;7.60;;;128.40;1689.60;;;;;;5073010;28;20438;-75
2021/04/07 06:25:18;;;;;;;11.38;7.72;;;128.50;1664.00;;;;;;5073887;28;20090;-76
2021/04/07 06:27:55;;;;;;;12.48;8.30;;;128.60;1664.00;;;;;;5074188;28;20458;-75
2021/04/07 06:30:41;;;;;;;13.35;9.02;;;128.70;1664.00;;;;;;5073653;28;20120;-74
2021/04/07 06:33:31;;;;;;;11.68;7.68;;;128.80;1664.00;;;;;;5074235;28;20036;-73
2021/04/07 06:36:05;;;;;;;13.07;8.45;;;153.60;1638.40;;;;;;5073684;28;20033;-73
2021/04/07 06:38:33;;;;;;;11.20;7.68;;;153.60;1612.80;;;;;;5073916;28;20381;-74
2021/04/07 06:41:00;;;;;;;10.00;7.53;;;153.80;1612.80;;;;;;5073431;28;20020;-73
2021/04/07 06:43:29;;;;;;;10.90;7.00;;;153.90;1587.20;;;;;;5073931;28;20059;-74
2021/04/07 06:45:55;;;;;;;15.95;8.30;;;154.10;1587.20;;;;;;5073674;28;20167;-74
2021/04/07 06:48:21;;;;;;;15.68;8.65;;;154.20;1561.60;;;;;;5071832;28;20023;-73
2021/04/07 06:50:51;;;;;;;13.63;8.63;;;154.30;1561.60;;;;;;5072219;28;20498;-73
2021/04/07 06:53:18;;;;;;;15.57;10.02;;;179.20;1536.00;;;;;;5073466;28;20052;-72
2021/04/07 06:55:44;;;;;;;16.33;9.23;;;179.30;1536.00;;;;;;5073777;28;20016;-73
2021/04/07 06:58:10;;;;;;;15.70;9.45;;;179.50;1510.40;;;;;;5073610;28;20532;-73
2021/04/07 07:00:39;;;;;;;14.60;8.20;;;179.60;1484.80;;;;;;5073866;28;20025;-78
2021/04/07 07:03:08;;;;;;;15.82;9.50;;;179.80;1484.80;;;;;;5073611;28;20020;-73
2021/04/07 07:05:37;;;;;;;17.40;9.60;;;180.00;1459.20;;;;;;5073649;28;20047;-73
2021/04/07 07:08:05;;;;;;;18.83;11.75;;;180.10;1459.20;;;;;;5073409;28;20028;-74
2021/04/07 07:10:35;;;;;;;20.17;14.23;;;204.90;1433.60;;;;;;5073621;28;20028;-76
2021/04/07 07:13:01;;;;;;;52.08;35.47;;;205.00;1408.00;;;;;;5073425;28;20344;-73
2021/04/07 07:15:27;;;;;;;140.15;88.32;;;205.20;1408.00;;;;;;5073462;28;20442;-75
2021/04/07 07:17:52;;;;;;;39.42;21.45;;;205.30;1382.40;;;;;;5073445;28;20066;-73
2021/04/07 07:20:32;;;;;;;24.83;12.70;;;205.40;1356.80;;;;;;5071693;28;20041;-73
2021/04/07 07:22:59;;;;;;;33.95;20.80;;;205.60;1356.80;;;;;;5073495;28;20100;-76
2021/04/07 07:25:26;;;;;;;37.47;29.40;;;230.40;1331.20;;;;;;5073087;28;20033;-74
2021/04/07 07:28:03;;;;;;;14.73;11.68;;;230.40;1305.60;;;;;;5069056;28;20040;-74
2021/04/07 07:30:49;;;;;;;11.45;8.15;;;230.70;1254.40;;;;;;5072600;28;20382;-76
2021/04/07 07:33:17;;;;;;;11.70;7.38;;;230.90;1254.40;;;;;;5071475;28;20025;-77
2021/04/07 07:35:43;;;;;;;14.52;10.18;;;231.00;1228.80;;;;;;5069711;28;20462;-78
2021/04/07 07:38:09;;;;;;;15.70;11.65;;;231.10;1203.20;;;;;;5072416;28;20113;-74
2021/04/07 07:40:35;;;;;;;17.95;11.27;;;231.20;1203.20;;;;;;5070072;28;20052;-79
2021/04/07 07:43:01;;;;;;;30.83;19.48;;;231.30;1177.60;;;;;;5072347;28;20036;-75
2021/04/07 07:45:35;;;;;;;26.65;17.60;;;256.10;1177.60;;;;;;5069694;28;20032;-75
2021/04/07 07:48:07;;;;;;;28.70;16.45;;;256.30;1152.00;;;;;;5070652;28;20032;-76
2021/04/07 07:50:42;;;;;;;19.38;13.88;;;256.40;1126.40;;;;;;5072292;28;20028;-75
2021/04/07 07:53:12;;;;;;;41.25;26.58;;;256.60;1126.40;;;;;;5072375;28;20028;-75
2021/04/07 07:55:38;;;;;;;24.52;17.02;;;256.70;1100.80;;;;;;5070795;28;20036;-76
2021/04/07 07:58:05;;;;;;;21.35;13.65;;;256.90;1075.20;;;;;;5072227;28;20086;-75
2021/04/07 08:00:31;;;;;;;16.45;10.68;;;281.70;1100.80;;;;;;5066449;28;20028;-77
2021/04/07 08:03:11;;;;;;;28.95;19.92;;;281.80;1075.20;;;;;;5075093;28;20028;-77
2021/04/07 08:05:38;;;;;;;17.85;12.60;;;282.00;1049.60;;;;;;5076121;28;20512;-75
2021/04/07 08:08:05;;;;;;;18.13;11.18;;;282.10;1024.00;;;;;;5074695;28;20545;-75
2021/04/07 08:10:32;;;;;;;15.52;8.95;;;282.10;1049.60;;;;;;5071398;28;20032;-75
2021/04/07 08:13:01;;;;;;;23.67;10.15;;;282.20;1049.60;;;;;;5074388;28;20028;-77
2021/04/07 08:15:31;;;;;;;16.35;9.60;;;282.40;1024.00;;;;;;5075464;28;20035;-77
2021/04/07 08:17:57;;;;;;;19.08;12.98;;;282.50;1024.00;;;;;;5075061;28;20386;-76
2021/04/07 08:20:25;;;;;;;24.50;16.58;;;307.20;1024.00;;;;;;5075569;28;20028;-78
2021/04/07 08:22:55;;;;;;;17.63;10.85;;;307.30;1024.00;;;;;;5075220;28;20428;-75
2021/04/07 08:25:21;;;;;;;22.58;10.75;;;307.30;972.80;;;;;;5073568;28;20041;-75
2021/04/07 08:27:51;;;;;;;21.38;13.48;;;307.30;947.20;;;;;;5075442;28;20070;-78
2021/04/07 08:30:18;;;;;;;12.02;7.30;;;307.30;972.80;;;;;;5075282;28;20461;-75
2021/04/07 08:32:47;;;;;;;21.58;14.88;;;307.40;947.20;;;;;;5074351;28;20470;-73
2021/04/07 08:35:14;;;;;;;30.30;18.67;;;307.50;972.80;;;;;;5075319;28;20060;-74
2021/04/07 08:37:39;;;;;;;16.83;11.73;;;307.70;972.80;;;;;;5075050;28;20040;-75
2021/04/07 08:40:17;;;;;;;13.57;9.73;;;307.70;921.60;;;;;;5072262;28;20039;-76
2021/04/07 08:42:44;;;;;;;17.63;8.80;;;307.80;921.60;;;;;;5071431;28;20028;-76
2021/04/07 08:45:13;;;;;;;11.82;8.65;;;307.90;921.60;;;;;;5073987;28;20032;-74
2021/04/07 08:47:52;;;;;;;9.65;6.05;;;308.00;896.00;;;;;;5073776;28;20032;-78
2021/04/07 08:50:19;;;;;;;13.98;9.85;;;308.00;844.80;;;;;;5073664;28;20525;-71
2021/04/07 08:52:48;;;;;;;17.67;12.35;;;308.10;844.80;;;;;;5074076;28;20035;-72
2021/04/07 08:55:22;;;;;;;15.35;8.70;;;332.80;896.00;;;;;;5072137;28;20059;-74
2021/04/07 08:58:05;;;;;;;9.35;6.38;;;332.90;844.80;;;;;;5072173;28;20079;-74
2021/04/07 09:00:38;;;;;;;14.85;8.95;;;333.00;844.80;;;;;;5062816;28;20040;-73
2021/04/07 09:03:13;;;;;;;10.27;7.68;;;333.10;844.80;;;;;;5065032;28;20016;-73
2021/04/07 09:05:46;;;;;;;8.60;6.00;;;333.20;819.20;;;;;;5065038;28;20029;-72
2021/04/07 09:08:25;;;;;;;11.80;5.78;;;333.30;819.20;;;;;;5063879;28;20029;-73
2021/04/07 09:10:56;;;;;;;7.35;5.15;;;333.30;819.20;;;;;;5070779;28;20047;-73
2021/04/07 09:13:29;;;;;;;53.65;8.10;;;333.40;819.20;;;;;;5073583;28;20081;-77
2021/04/07 09:16:12;;;;;;;15.93;5.30;;;333.50;844.80;;;;;;5074612;28;20043;-76
2021/04/07 09:18:44;;;;;;;14.77;6.32;;;333.50;768.00;;;;;;5073800;28;20382;-75
2021/04/07 09:21:21;;;;;;;13.65;5.22;;;333.60;768.00;;;;;;5074241;28;20021;-75
2021/04/07 09:23:57;;;;;;;10.02;5.38;;;358.40;768.00;;;;;;5074027;28;20024;-74
2021/04/07 09:26:26;;;;;;;39.35;8.23;;;358.40;742.40;;;;;;5074216;28;20036;-71
2021/04/07 09:28:53;;;;;;;48.40;9.00;;;358.40;768.00;;;;;;5073303;28;20028;-77
2021/04/07 09:31:25;;;;;;;20.45;7.97;;;358.60;768.00;;;;;;5073753;28;20032;-76
2021/04/07 09:33:55;;;;;;;13.40;5.32;;;358.60;742.40;;;;;;5073985;28;20043;-75
2021/04/07 09:36:30;;;;;;;15.65;9.68;;;358.60;716.80;;;;;;5073529;28;20068;-73
2021/04/07 09:39:05;;;;;;;19.02;10.65;;;358.70;716.80;;;;;;5072807;28;20021;-72
2021/04/07 09:41:35;;;;;;;28.73;21.05;;;358.70;716.80;;;;;;5071289;28;20060;-74
2021/04/07 09:44:05;;;;;;;16.48;12.20;;;358.80;716.80;;;;;;5072147;28;20060;-74
2021/04/07 09:46:31;;;;;;;9.98;6.40;;;358.90;742.40;;;;;;5071987;28;20394;-70
2021/04/07 09:49:08;;;;;;;10.55;5.57;;;358.90;691.20;;;;;;5072714;28;20020;-77
2021/04/07 09:51:39;;;;;;;35.92;7.68;;;358.80;691.20;;;;;;5073414;28;20477;-77
2021/04/07 09:54:30;;;;;;;13.18;7.40;;;358.80;716.80;;;;;;5072888;28;20040;-77
2021/04/07 09:56:56;;;;;;;17.73;11.45;;;358.70;691.20;;;;;;5072867;28;20031;-76
2021/04/07 09:59:44;;;;;;;20.90;10.13;;;358.80;665.60;;;;;;5073344;28;20119;-76
2021/04/07 10:02:12;;;;;;;19.05;11.52;;;358.80;691.20;;;;;;5070769;28;20021;-76
2021/04/07 10:04:43;;;;;;;13.35;7.68;;;358.80;691.20;;;;;;5072172;28;20040;-76
2021/04/07 10:07:19;;;;;;;10.02;6.00;;;358.80;665.60;;;;;;5072872;28;20363;-76
2021/04/07 10:09:49;;;;;;;22.75;9.70;;;358.90;665.60;;;;;;5071272;28;20020;-76
2021/04/07 10:12:17;;;;;;;22.98;6.38;;;358.90;691.20;;;;;;5071330;28;20020;-76
2021/04/07 10:15:08;;;;;;;15.95;10.18;;;358.90;665.60;;;;;;5072258;28;20099;-76
2021/04/07 10:17:36;;;;;;;10.48;6.47;;;358.90;665.60;;;;;;5070994;28;20485;-76
2021/04/07 10:20:12;;;;;;;16.50;8.50;;;358.90;665.60;;;;;;5055417;28;20123;-76
2021/04/07 10:22:39;;;;;;;14.90;10.38;;;358.90;665.60;;;;;;5071149;28;20051;-76
2021/04/07 10:25:14;;;;;;;20.73;12.15;;;359.00;665.60;;;;;;5071302;28;20032;-76
2021/04/07 10:27:41;;;;;;;19.77;13.38;;;359.10;691.20;;;;;;5072445;28;20032;-77
2021/04/07 10:30:09;;;;;;;19.73;12.95;;;359.10;691.20;;;;;;5071558;28;20120;-77
2021/04/07 10:32:42;;;;;;;16.60;10.55;;;359.20;665.60;;;;;;5073074;28;20024;-77
2021/04/07 10:35:25;;;;;;;19.05;11.85;;;359.30;665.60;;;;;;5073108;28;20111;-76
2021/04/07 10:38:02;;;;;;;12.70;8.23;;;359.20;665.60;;;;;;5072272;28;20045;-76
2021/04/07 10:40:30;;;;;;;15.57;8.80;;;359.10;640.00;;;;;;5072832;28;20032;-76
2021/04/07 10:42:57;;;;;;;20.60;10.25;;;358.90;665.60;;;;;;5072079;28;20040;-75
2021/04/07 10:45:27;;;;;;;29.73;19.48;;;358.90;665.60;;;;;;5072259;28;20037;-77
2021/04/07 10:48:05;;;;;;;16.58;9.73;;;358.90;665.60;;;;;;5072625;28;20470;-77
2021/04/07 10:50:32;;;;;;;16.92;9.75;;;359.00;665.60;;;;;;5072923;28;20050;-76
2021/04/07 10:52:59;;;;;;;13.52;6.70;;;359.10;691.20;;;;;;5072228;28;20639;-76
2021/04/07 10:55:26;;;;;;;12.73;8.73;;;359.20;665.60;;;;;;5072700;28;20052;-77
2021/04/07 10:57:54;;;;;;;17.77;12.40;;;359.30;691.20;;;;;;5072828;28;20099;-76
2021/04/07 11:00:31;;;;;;;15.07;11.45;;;359.30;691.20;;;;;;5070462;28;20033;-76
2021/04/07 11:02:57;;;;;;;16.50;8.52;;;359.10;691.20;;;;;;5072599;28;20021;-76
2021/04/07 11:05:25;;;;;;;17.52;8.82;;;359.10;665.60;;;;;;5072519;28;20067;-75
2021/04/07 11:08:05;;;;;;;9.02;5.15;;;359.10;665.60;;;;;;5072203;28;20025;-76
2021/04/07 11:10:44;;;;;;;12.90;7.05;;;359.10;691.20;;;;;;5072384;28;20033;-76
2021/04/07 11:13:12;;;;;;;12.07;4.78;;;359.20;691.20;;;;;;5072545;28;20078;-76
2021/04/07 11:15:38;;;;;;;10.15;5.90;;;359.30;640.00;;;;;;5072385;28;20020;-76
2021/04/07 11:18:06;;;;;;;9.25;5.38;;;359.30;640.00;;;;;;5070844;28;20028;-76
2021/04/07 11:20:33;;;;;;;10.00;5.25;;;384.00;640.00;;;;;;5072564;28;20081;-75
2021/04/07 11:22:59;;;;;;;7.30;4.70;;;384.00;665.60;;;;;;5072085;28;20031;-76
2021/04/07 11:25:26;;;;;;;9.20;5.40;;;384.00;665.60;;;;;;5072169;28;20116;-75
2021/04/07 11:27:52;;;;;;;8.15;4.43;;;359.20;665.60;;;;;;5072553;28;20029;-76
2021/04/07 11:30:19;;;;;;;11.00;6.70;;;359.00;665.60;;;;;;5071983;28;20107;-76
2021/04/07 11:32:54;;;;;;;14.85;6.22;;;358.80;665.60;;;;;;5072279;28;20021;-75
2021/04/07 11:38:11;;;;;;;8.60;4.65;;;358.90;640.00;;;;;;5075544;28;20319;-77
2021/04/07 11:41:38;;;;;;;15.55;4.90;;;359.00;665.60;;;;;;5075137;28;20031;-77
2021/04/07 11:43:27;;;;;;;10.88;5.15;;;359.10;665.60;;;;;;5076210;28;20028;-76
2021/04/07 11:45:52;;;;;;;21.33;9.05;;;359.20;665.60;;;;;;5075660;28;20040;-77
2021/04/07 11:48:18;;;;;;;14.20;7.78;;;359.10;665.60;;;;;;5076109;28;20025;-74
2021/04/07 11:50:44;;;;;;;12.73;8.20;;;359.00;640.00;;;;;;5076192;28;20083;-77
2021/04/07 11:53:09;;;;;;;16.35;12.35;;;358.80;665.60;;;;;;5075151;28;20016;-76
2021/04/07 11:55:35;;;;;;;14.57;11.40;;;358.60;640.00;;;;;;5076286;28;20173;-76
2021/04/07 11:58:01;;;;;;;16.80;8.45;;;358.40;640.00;;;;;;5075538;28;20017;-77
2021/04/07 12:00:27;;;;;;;11.57;7.93;;;333.70;665.60;;;;;;5075169;28;20029;-76
2021/04/07 12:02:52;;;;;;;12.30;8.50;;;333.50;665.60;;;;;;5076038;28;20024;-77
2021/04/07 12:05:23;;;;;;;11.93;7.95;;;333.60;691.20;;;;;;5075902;28;20122;-77
2021/04/07 12:07:50;;;;;;;11.50;7.65;;;333.50;691.20;;;;;;5075296;28;20750;-75
2021/04/07 12:10:16;;;;;;;18.63;8.77;;;333.50;691.20;;;;;;5075852;28;20485;-73
2021/04/07 12:12:47;;;;;;;17.85;8.85;;;333.50;716.80;;;;;;5075450;28;20024;-74
2021/04/07 12:15:15;;;;;;;16.45;8.15;;;333.60;716.80;;;;;;5066843;28;20036;-75
2021/04/07 12:17:41;;;;;;;26.08;7.90;;;333.70;716.80;;;;;;5055447;28;20031;-73
2021/04/07 12:20:08;;;;;;;14.95;8.02;;;358.40;716.80;;;;;;5055690;28;20029;-76
2021/04/07 12:22:34;;;;;;;15.48;6.47;;;358.40;716.80;;;;;;5054991;28;20386;-75